Time;durP1;ratioP1;P1;durP2;ratioP2;P2;SDS_P1;SDS_P2;PMS_P1;PMS_P2;Temp;Humidity;BMP_temperature;BMP_pressure;BME280_temperature;BME280_humidity;BME280_pressure;Samples;Min_cycle;Max_cycle;Signal;HPM_P1;HPM_P2
2022/04/22 00:01:11;;;;;;;9.68;7.03;;;;;;;10.72;60.20;100819.63;5091935;28;20036;-60
2022/04/22 00:03:37;;;;;;;10.77;7.00;;;;;;;10.70;60.44;100812.75;5093055;28;20043;-60
2022/04/22 00:06:03;;;;;;;10.27;6.43;;;;;;;10.65;60.66;100818.41;5093370;28;20053;-59
2022/04/22 00:08:29;;;;;;;9.57;6.68;;;;;;;10.66;60.85;100812.13;5092987;28;20050;-60
2022/04/22 00:13:39;;;;;;;10.20;7.28;;;;;;;10.61;60.90;100818.75;5093396;28;20133;-61
2022/04/22 00:16:06;;;;;;;10.70;6.85;;;;;;;10.56;61.36;100808.50;5093283;28;20482;-61
2022/04/22 00:18:32;;;;;;;10.63;6.80;;;;;;;10.54;61.29;100813.06;5093140;28;20071;-61
2022/04/22 00:20:57;;;;;;;11.25;7.28;;;;;;;10.52;61.58;100815.00;5093146;28;20051;-60
2022/04/22 00:23:23;;;;;;;10.27;7.45;;;;;;;10.49;61.47;100809.91;5092958;28;20032;-60
2022/04/22 00:25:48;;;;;;;9.77;7.63;;;;;;;10.45;61.68;100803.16;5092785;28;20123;-60
2022/04/22 00:28:14;;;;;;;10.68;7.68;;;;;;;10.45;61.99;100808.47;5092738;28;20107;-60
2022/04/22 00:30:39;;;;;;;10.70;7.93;;;;;;;10.41;62.32;100799.91;5092960;28;20043;-60
2022/04/22 00:33:05;;;;;;;10.60;7.40;;;;;;;10.39;62.43;100804.47;5093056;28;20054;-60
2022/04/22 00:35:31;;;;;;;8.70;7.15;;;;;;;10.36;62.57;100796.75;5092757;28;20116;-60
2022/04/22 00:37:56;;;;;;;11.05;8.13;;;;;;;10.34;62.20;100798.66;5092809;28;20126;-60
2022/04/22 00:40:21;;;;;;;8.80;7.53;;;;;;;10.32;62.70;100793.47;5074659;28;20054;-60
2022/04/22 00:42:46;;;;;;;9.70;7.85;;;;;;;10.29;63.08;100800.78;5092460;28;20633;-60
2022/04/22 00:45:12;;;;;;;10.57;7.90;;;;;;;10.27;62.87;100798.25;5092767;28;20036;-60
2022/04/22 00:47:38;;;;;;;14.38;7.78;;;;;;;10.25;63.21;100791.38;5092658;28;20078;-60
2022/04/22 00:50:04;;;;;;;10.75;7.45;;;;;;;10.22;63.48;100786.31;5092677;28;20055;-60
2022/04/22 00:52:29;;;;;;;9.70;7.63;;;;;;;10.21;63.29;100785.47;5092488;28;20055;-60
2022/04/22 00:54:54;;;;;;;12.48;7.50;;;;;;;10.18;63.21;100789.19;5092581;28;20038;-60
2022/04/22 00:57:19;;;;;;;8.98;8.07;;;;;;;10.17;63.49;100774.25;5092363;28;20035;-60
2022/04/22 00:59:46;;;;;;;10.25;7.35;;;;;;;10.13;63.85;100783.38;5074459;28;20098;-59
2022/04/22 01:02:11;;;;;;;11.93;7.63;;;;;;;10.12;63.83;100775.53;5092400;28;20551;-60
2022/04/22 01:10:06;;;;;;;13.93;8.65;;;;;;;10.00;64.66;100778.16;5096556;28;20539;-60
2022/04/22 01:12:32;;;;;;;13.68;7.85;;;;;;;9.97;64.90;100773.06;5078147;28;20115;-60
2022/04/22 01:14:58;;;;;;;13.18;7.78;;;;;;;9.93;65.00;100774.28;5096185;28;20115;-60
2022/04/22 01:17:25;;;;;;;14.18;8.25;;;;;;;9.94;64.86;100764.50;5096395;28;20485;-60
2022/04/22 01:19:50;;;;;;;12.40;8.15;;;;;;;9.91;64.89;100772.69;5096050;28;20082;-60
2022/04/22 01:22:16;;;;;;;11.73;7.95;;;;;;;9.88;65.30;100770.28;5096296;28;20477;-59
2022/04/22 01:24:42;;;;;;;12.18;8.10;;;;;;;9.86;65.69;100766.88;5096022;28;20161;-60
2022/04/22 01:27:07;;;;;;;15.45;9.13;;;;;;;9.80;65.99;100755.78;5096111;28;20214;-59
2022/04/22 01:29:33;;;;;;;13.90;8.70;;;;;;;9.78;65.96;100764.81;5077909;28;20043;-60
2022/04/22 01:32:00;;;;;;;11.45;8.48;;;;;;;9.76;66.15;100764.09;5096008;28;20040;-60
2022/04/22 01:34:25;;;;;;;10.45;8.30;;;;;;;9.75;66.42;100767.69;5096092;28;20036;-60
2022/04/22 01:36:51;;;;;;;12.40;8.30;;;;;;;9.74;66.00;100756.25;5095284;28;20115;-60
2022/04/22 01:39:16;;;;;;;12.13;8.65;;;;;;;9.73;66.46;100756.38;5095894;28;20090;-60
2022/04/22 01:41:41;;;;;;;12.13;8.80;;;;;;;9.73;66.78;100753.72;5095806;28;20207;-59
2022/04/22 01:44:07;;;;;;;14.93;9.00;;;;;;;9.69;67.24;100758.41;5095981;28;20274;-59
2022/04/22 01:46:32;;;;;;;10.73;8.70;;;;;;;9.68;67.33;100762.00;5095717;28;20389;-59
2022/04/22 01:48:58;;;;;;;12.50;9.40;;;;;;;9.65;67.37;100756.09;5077451;28;20061;-60
2022/04/22 01:51:23;;;;;;;12.90;9.35;;;;;;;9.64;67.35;100757.88;5094982;28;20409;-59
2022/04/22 01:53:49;;;;;;;11.68;9.30;;;;;;;9.65;67.56;100759.56;5095622;28;20475;-60
2022/04/22 01:56:14;;;;;;;15.02;9.35;;;;;;;9.66;67.22;100761.28;5095648;28;20036;-60
2022/04/22 01:58:39;;;;;;;12.27;9.25;;;;;;;9.63;67.83;100751.72;5077303;28;20537;-60
2022/04/22 02:01:04;;;;;;;16.38;9.38;;;;;;;9.62;67.86;100757.16;5095331;28;20501;-60
2022/04/22 02:03:30;;;;;;;16.55;9.50;;;;;;;9.59;68.14;100755.59;5095554;28;20048;-60
2022/04/22 02:05:55;;;;;;;14.52;9.25;;;;;;;9.56;68.29;100754.94;5077242;28;20038;-59
2022/04/22 02:08:21;;;;;;;12.27;9.77;;;;;;;9.54;68.46;100764.81;5094764;28;20039;-60
2022/04/22 02:10:46;;;;;;;12.02;9.80;;;;;;;9.51;68.60;100757.09;5077122;28;20409;-60
2022/04/22 02:13:12;;;;;;;16.92;10.40;;;;;;;9.49;69.08;100751.88;5095216;28;20035;-60
2022/04/22 02:15:37;;;;;;;14.90;10.13;;;;;;;9.46;68.39;100757.44;5094405;28;20115;-59
2022/04/22 02:18:03;;;;;;;15.38;10.32;;;;;;;9.42;69.21;100756.78;5077120;28;20074;-60
2022/04/22 02:20:28;;;;;;;12.73;10.13;;;;;;;9.40;69.21;100757.88;5095179;28;20043;-60
2022/04/22 02:22:54;;;;;;;15.32;10.23;;;;;;;9.39;69.01;100756.19;5095094;28;20040;-60
2022/04/22 02:25:19;;;;;;;12.32;9.77;;;;;;;9.34;69.33;100748.59;5118072;22;20068;-55
2022/04/22 02:30:28;;;;;;;13.00;10.00;;;;;;;9.34;69.43;100751.25;5066050;28;20513;-56
2022/04/22 02:32:53;;;;;;;13.82;10.90;;;;;;;9.30;69.66;100747.09;5074748;28;20033;-55
2022/04/22 02:35:21;;;;;;;13.57;10.95;;;;;;;9.29;70.02;100749.88;5066821;28;20040;-56
2022/04/22 02:37:50;;;;;;;14.93;10.80;;;;;;;9.26;70.05;100745.66;5074640;28;20078;-56
2022/04/22 02:45:26;;;;;;;15.45;10.18;;;;;;;9.25;70.22;100750.06;5061109;28;20041;-56
2022/04/22 02:45:46;;;;;;;16.20;11.32;;;;;;;9.21;70.85;100737.19;5074567;28;20048;-55
2022/04/22 02:48:12;;;;;;;12.18;10.32;;;;;;;9.22;70.42;100741.50;5066157;28;20037;-56
2022/04/22 02:50:37;;;;;;;12.18;10.13;;;;;;;9.23;70.71;100735.25;5054383;28;20040;-56
2022/04/22 02:53:02;;;;;;;13.98;10.68;;;;;;;9.21;70.54;100734.53;5054370;28;20495;-55
2022/04/22 02:55:28;;;;;;;14.38;10.82;;;;;;;9.22;70.49;100736.22;5054133;28;20037;-55
2022/04/22 02:57:53;;;;;;;14.63;10.77;;;;;;;9.18;70.68;100738.25;5046514;28;20041;-55
2022/04/22 03:00:18;;;;;;;15.60;10.77;;;;;;;9.17;71.20;100735.69;5064705;28;20036;-55
2022/04/22 03:02:44;;;;;;;15.40;11.48;;;;;;;9.14;71.20;100738.56;5072715;28;20040;-56
2022/04/22 03:05:10;;;;;;;14.57;10.10;;;;;;;9.10;71.36;100734.47;5053966;28;20119;-55
2022/04/22 03:07:35;;;;;;;14.65;11.10;;;;;;;9.06;71.38;100732.03;5054151;28;20051;-55
2022/04/22 03:10:00;;;;;;;14.50;10.95;;;;;;;9.06;71.47;100728.53;5053899;28;20510;-55
2022/04/22 03:12:26;;;;;;;13.82;11.13;;;;;;;9.03;71.75;100726.09;5053980;28;20438;-55
2022/04/22 03:14:51;;;;;;;13.70;10.65;;;;;;;9.01;71.48;100728.88;5062695;28;20136;-56
2022/04/22 03:17:16;;;;;;;16.47;11.43;;;;;;;8.99;72.05;100728.13;5054480;28;20041;-56
2022/04/22 03:19:42;;;;;;;14.90;11.68;;;;;;;8.97;72.16;100726.53;5053812;28;20721;-56
2022/04/22 03:22:08;;;;;;;15.88;11.88;;;;;;;8.95;72.23;100721.34;5054049;28;20033;-55
2022/04/22 03:24:33;;;;;;;13.93;11.00;;;;;;;8.94;72.04;100724.94;5053829;28;20056;-56
2022/04/22 03:26:59;;;;;;;15.73;11.70;;;;;;;8.92;72.16;100721.56;5053563;28;20099;-56
2022/04/22 03:29:24;;;;;;;13.77;11.60;;;;;;;8.92;72.11;100724.22;5053452;28;20060;-56
2022/04/22 03:31:49;;;;;;;13.85;11.40;;;;;;;8.89;72.30;100724.44;5053118;28;20449;-56
2022/04/22 03:34:15;;;;;;;15.43;11.48;;;;;;;8.86;72.59;100722.03;5057729;28;20131;-56
2022/04/22 03:36:40;;;;;;;15.60;12.07;;;;;;;8.87;72.15;100723.69;5060813;28;20029;-54
2022/04/22 03:39:05;;;;;;;16.00;11.80;;;;;;;8.81;72.77;100714.41;5051434;28;20113;-55
2022/04/22 03:41:30;;;;;;;14.30;11.98;;;;;;;8.81;72.44;100721.47;5051024;28;20048;-55
2022/04/22 03:43:55;;;;;;;16.83;12.90;;;;;;;8.79;72.80;100718.09;5051276;28;20037;-55
2022/04/22 03:46:21;;;;;;;17.07;12.57;;;;;;;8.77;73.08;100717.38;5051123;28;20705;-54
2022/04/22 03:48:46;;;;;;;14.10;11.93;;;;;;;8.74;72.62;100715.78;5051619;28;20271;-54
2022/04/22 03:51:12;;;;;;;17.23;12.85;;;;;;;8.70;73.74;100720.44;5052755;28;20037;-55
2022/04/22 03:53:39;;;;;;;16.95;12.15;;;;;;;8.70;73.19;100715.16;5053115;28;20043;-56
2022/04/22 03:58:48;;;;;;;18.60;13.25;;;;;;;8.66;73.52;100705.75;5053561;28;20078;-56
2022/04/22 04:01:14;;;;;;;16.48;13.52;;;;;;;8.62;73.92;100701.59;5052035;28;20546;-55
2022/04/22 04:03:39;;;;;;;17.63;13.68;;;;;;;8.62;73.89;100693.66;5053257;28;20029;-56
2022/04/22 04:06:07;;;;;;;15.52;12.63;;;;;;;8.62;73.68;100704.25;5052906;28;20486;-55
2022/04/22 04:08:33;;;;;;;17.92;13.43;;;;;;;8.61;74.00;100697.28;5052908;28;20040;-56
2022/04/22 04:16:26;;;;;;;17.00;13.80;;;;;;;8.58;74.16;100699.31;5052960;28;20051;-54
2022/04/22 04:18:51;;;;;;;17.08;13.65;;;;;;;8.58;73.74;100700.16;5052912;28;20045;-56
2022/04/22 04:24:00;;;;;;;17.75;13.68;;;;;;;8.46;73.99;100691.28;5053015;28;20613;-56
2022/04/22 04:26:26;;;;;;;17.50;13.57;;;;;;;8.49;74.40;100699.00;5052637;28;20128;-56
2022/04/22 04:28:52;;;;;;;19.75;14.65;;;;;;;8.49;74.26;100695.47;5052874;28;20487;-56
2022/04/22 04:31:18;;;;;;;19.30;14.20;;;;;;;8.49;74.47;100700.78;5052619;28;20049;-55
2022/04/22 04:33:44;;;;;;;18.42;13.93;;;;;;;8.47;74.81;100697.41;5052472;28;20466;-55
2022/04/22 04:36:10;;;;;;;17.00;13.75;;;;;;;8.46;74.57;100698.34;5052575;28;20106;-56
2022/04/22 04:38:37;;;;;;;17.25;14.48;;;;;;;8.43;74.94;100691.47;5057302;28;20047;-56
2022/04/22 04:41:03;;;;;;;19.67;13.90;;;;;;;8.45;74.43;100697.50;5059078;28;20066;-55
2022/04/22 04:43:28;;;;;;;19.23;14.32;;;;;;;8.46;74.85;100701.00;5059259;28;20036;-56
2022/04/22 04:45:53;;;;;;;17.38;14.75;;;;;;;8.45;75.27;100707.25;5058975;28;20051;-56
2022/04/22 04:48:19;;;;;;;19.05;15.35;;;;;;;8.45;75.02;100700.16;5059330;28;20037;-56
2022/04/22 04:50:46;;;;;;;21.13;14.88;;;;;;;8.44;75.47;100705.56;5059177;28;20433;-56
2022/04/22 04:53:12;;;;;;;20.63;14.68;;;;;;;8.46;75.50;100703.63;5059529;28;20029;-56
2022/04/22 04:55:37;;;;;;;21.40;14.93;;;;;;;8.45;75.37;100705.44;5059205;28;20032;-56
2022/04/22 04:58:03;;;;;;;21.77;14.73;;;;;;;8.44;75.84;100689.66;5059108;28;20044;-56
2022/04/22 05:00:28;;;;;;;22.63;15.95;;;;;;;8.45;75.43;100691.38;5059223;28;20592;-56
2022/04/22 05:02:55;;;;;;;19.50;15.27;;;;;;;8.45;75.48;100684.28;5059140;28;20033;-56
2022/04/22 05:05:20;;;;;;;20.10;15.65;;;;;;;8.48;76.14;100696.47;5058821;28;20091;-56
2022/04/22 05:07:57;;;;;;;20.60;15.38;;;;;;;8.48;75.77;100696.47;5066978;28;20032;-56
2022/04/22 05:10:24;;;;;;;16.75;14.93;;;;;;;8.48;76.27;100697.28;5059239;28;20041;-56
2022/04/22 05:12:50;;;;;;;19.85;14.63;;;;;;;8.47;76.01;100692.94;5067387;28;20466;-56
2022/04/22 05:15:19;;;;;;;17.70;14.57;;;;;;;8.48;76.33;100697.28;5059063;28;20040;-56
2022/04/22 05:17:46;;;;;;;20.75;15.55;;;;;;;8.50;76.37;100698.03;5058910;28;20041;-56
2022/04/22 05:20:13;;;;;;;21.63;15.85;;;;;;;8.55;76.52;100691.56;5059249;28;20033;-56
2022/04/22 05:22:39;;;;;;;19.95;15.45;;;;;;;8.58;76.49;100692.19;5059154;28;20028;-56
2022/04/22 05:25:05;;;;;;;22.92;15.63;;;;;;;8.60;76.85;100692.94;5058692;28;20071;-56
2022/04/22 05:27:31;;;;;;;18.73;14.73;;;;;;;8.62;76.67;100693.66;5058907;28;20422;-56
2022/04/22 05:32:43;;;;;;;19.15;15.40;;;;;;;8.67;76.68;100696.81;5058952;28;20079;-56
2022/04/22 05:35:09;;;;;;;22.00;16.38;;;;;;;8.70;77.36;100701.91;5059315;28;20386;-56
2022/04/22 05:37:49;;;;;;;21.10;15.43;;;;;;;8.75;76.42;100693.66;5058758;28;20040;-56
2022/04/22 05:40:17;;;;;;;20.13;15.60;;;;;;;8.73;77.27;100690.28;5058708;28;20033;-56
2022/04/22 05:42:43;;;;;;;22.80;16.23;;;;;;;8.79;76.95;100699.56;5058570;28;20123;-56
2022/04/22 05:45:10;;;;;;;20.83;15.55;;;;;;;8.80;77.31;100701.28;5058714;28;20041;-55
2022/04/22 05:47:35;;;;;;;22.67;16.67;;;;;;;8.82;77.40;100704.66;5073158;28;20044;-56
2022/04/22 05:50:02;;;;;;;20.85;16.73;;;;;;;8.88;77.57;100710.34;5047513;28;20110;-56
2022/04/22 05:52:27;;;;;;;23.40;17.25;;;;;;;8.90;77.92;100707.59;5054984;28;20037;-56
2022/04/22 05:54:53;;;;;;;21.98;16.65;;;;;;;8.92;77.78;100700.38;5047435;28;20033;-57
2022/04/22 05:57:19;;;;;;;26.85;18.02;;;;;;;8.96;77.74;100712.47;5055056;28;20036;-57
2022/04/22 05:59:44;;;;;;;21.65;18.48;;;;;;;9.00;77.56;100708.63;5054976;28;20064;-56
2022/04/22 06:02:09;;;;;;;23.73;18.42;;;;;;;9.03;77.93;100713.69;5051656;28;20088;-56
2022/04/22 06:04:35;;;;;;;22.27;18.50;;;;;;;9.07;78.09;100707.22;5065185;28;20093;-56
2022/04/22 06:07:00;;;;;;;27.05;18.90;;;;;;;9.12;77.83;100709.53;5055210;28;20037;-56
2022/04/22 06:12:09;;;;;;;25.40;19.35;;;;;;;9.23;77.94;100701.66;5054782;28;20294;-56
2022/04/22 06:14:35;;;;;;;25.00;19.58;;;;;;;9.30;77.82;100703.84;5055084;28;20041;-55
2022/04/22 06:17:01;;;;;;;22.67;20.02;;;;;;;9.35;77.84;100704.38;5054870;28;20029;-56
2022/04/22 06:19:27;;;;;;;25.25;19.52;;;;;;;9.41;77.79;100704.75;5054372;28;20418;-56
2022/04/22 06:21:52;;;;;;;23.98;18.88;;;;;;;9.47;77.63;100711.41;5054562;28;20041;-56
2022/04/22 06:24:17;;;;;;;23.40;19.08;;;;;;;9.53;77.58;100702.16;5054306;28;20478;-57
2022/04/22 06:26:42;;;;;;;24.50;19.52;;;;;;;9.59;77.45;100697.25;5053813;28;20049;-56
2022/04/22 06:29:08;;;;;;;24.80;19.23;;;;;;;9.67;77.34;100699.31;5054459;28;20043;-55
2022/04/22 06:31:35;;;;;;;26.25;19.45;;;;;;;9.73;77.04;100704.16;5054107;28;20045;-56
2022/04/22 06:34:01;;;;;;;22.27;19.17;;;;;;;9.78;77.01;100707.31;5054223;28;20110;-56
2022/04/22 06:36:29;;;;;;;22.58;18.88;;;;;;;9.88;76.54;100703.97;5054379;28;20032;-56
2022/04/22 06:38:58;;;;;;;24.23;20.17;;;;;;;9.98;76.56;100699.66;5053759;28;20410;-55
2022/04/22 06:45:46;;;;;;;22.65;19.95;;;;;;;10.17;76.06;100705.25;5054002;28;20048;-55
2022/04/22 06:47:12;;;;;;;24.20;20.00;;;;;;;10.29;75.33;100698.13;5056041;28;20107;-56
2022/04/22 06:49:38;;;;;;;23.38;20.08;;;;;;;10.38;75.00;100701.06;5074105;28;20044;-56
2022/04/22 06:52:05;;;;;;;24.50;19.40;;;;;;;10.46;74.68;100698.63;5065659;28;20045;-56
2022/04/22 06:54:31;;;;;;;23.55;19.08;;;;;;;10.51;74.59;100697.31;5054229;28;20036;-56
2022/04/22 06:56:57;;;;;;;22.17;19.77;;;;;;;10.62;74.30;100695.63;5053310;28;20033;-56
2022/04/22 06:59:23;;;;;;;22.92;19.48;;;;;;;10.70;73.75;100698.50;5053955;28;20071;-56
2022/04/22 07:01:48;;;;;;;22.83;19.20;;;;;;;10.78;73.42;100696.09;5052707;28;20486;-56
2022/04/22 07:04:14;;;;;;;21.40;19.10;;;;;;;10.88;73.20;100699.69;5053605;28;20036;-56
2022/04/22 07:06:41;;;;;;;23.70;19.25;;;;;;;10.99;72.74;100693.53;5054189;28;20044;-56
2022/04/22 07:09:07;;;;;;;23.20;19.15;;;;;;;11.14;72.47;100694.09;5053587;28;20175;-55
2022/04/22 07:11:34;;;;;;;23.95;18.98;;;;;;;11.27;71.71;100700.09;5051533;28;20069;-56
2022/04/22 07:14:01;;;;;;;20.42;17.63;;;;;;;11.40;71.35;100699.91;5053324;28;20753;-56
2022/04/22 07:16:27;;;;;;;23.05;18.42;;;;;;;11.52;70.66;100691.91;5057955;28;20051;-56
2022/04/22 07:18:53;;;;;;;22.40;17.92;;;;;;;11.61;70.63;100680.50;5067134;28;20037;-55
2022/04/22 07:21:19;;;;;;;24.02;17.88;;;;;;;11.74;69.88;100685.63;5071085;28;20441;-56
2022/04/22 07:23:45;;;;;;;19.58;17.48;;;;;;;11.80;69.33;100683.28;5055114;28;20068;-55
2022/04/22 07:26:11;;;;;;;21.15;18.23;;;;;;;11.84;68.96;100682.06;5066839;28;20529;-55
2022/04/22 07:28:38;;;;;;;22.35;18.10;;;;;;;11.90;69.15;100670.06;5071526;28;20554;-56
2022/04/22 07:31:04;;;;;;;19.60;17.13;;;;;;;12.11;69.18;100679.91;5070456;28;20036;-56
2022/04/22 07:33:30;;;;;;;19.88;17.02;;;;;;;12.19;68.11;100675.59;5071878;28;20127;-56
2022/04/22 07:35:55;;;;;;;21.10;17.17;;;;;;;12.37;67.97;100664.31;5058180;28;20036;-56
2022/04/22 07:38:21;;;;;;;29.63;17.10;;;;;;;12.43;67.09;100665.59;5055528;28;20449;-56
2022/04/22 07:40:49;;;;;;;19.30;17.08;;;;;;;12.50;66.97;100661.41;5052067;28;20044;-56
2022/04/22 07:48:45;;;;;;;18.27;16.05;;;;;;;12.76;65.17;100675.94;5041805;28;20166;-55
2022/04/22 07:51:10;;;;;;;20.63;15.85;;;;;;;12.70;64.69;100681.81;5070892;28;20505;-55
2022/04/22 07:53:36;;;;;;;20.17;15.80;;;;;;;12.68;64.91;100673.13;5071485;28;20405;-56
2022/04/22 07:56:06;;;;;;;18.63;16.17;;;;;;;12.67;64.73;100671.44;5069239;28;20200;-54
2022/04/22 07:58:32;;;;;;;17.75;15.63;;;;;;;12.83;64.79;100678.09;5071297;28;20024;-55
2022/04/22 08:00:58;;;;;;;17.25;15.07;;;;;;;12.96;64.36;100671.50;5066500;28;20120;-56
2022/04/22 08:03:24;;;;;;;18.85;15.05;;;;;;;13.17;63.74;100670.56;5067936;28;20107;-55
2022/04/22 08:05:49;;;;;;;18.02;15.75;;;;;;;13.34;63.80;100666.41;5071598;28;20052;-54
2022/04/22 08:08:14;;;;;;;20.50;15.05;;;;;;;13.42;62.74;100666.56;5070394;28;20032;-55
2022/04/22 08:10:39;;;;;;;17.27;15.32;;;;;;;13.46;62.71;100659.94;5057229;28;20498;-56
2022/04/22 08:13:06;;;;;;;19.90;15.25;;;;;;;13.60;62.67;100665.81;5050393;28;20029;-55
2022/04/22 08:15:35;;;;;;;21.23;14.80;;;;;;;13.67;62.15;100664.25;5060735;28;20037;-55
2022/04/22 08:18:04;;;;;;;17.20;15.00;;;;;;;13.74;61.73;100657.41;5056231;28;20123;-56
2022/04/22 08:20:31;;;;;;;17.25;14.52;;;;;;;13.73;61.77;100655.69;5054166;28;20422;-55
2022/04/22 08:22:57;;;;;;;16.15;14.40;;;;;;;13.73;61.46;100654.88;5053674;28;20029;-55
2022/04/22 08:25:23;;;;;;;16.77;13.90;;;;;;;13.66;60.98;100651.94;5050707;28;20095;-55
2022/04/22 08:27:49;;;;;;;16.30;14.03;;;;;;;13.67;61.44;100650.91;5053907;28;20414;-56
2022/04/22 08:30:14;;;;;;;16.98;14.32;;;;;;;13.68;60.87;100656.13;5052821;28;20284;-56
2022/04/22 08:32:40;;;;;;;18.27;14.27;;;;;;;13.63;61.25;100655.72;5054610;28;20080;-55
2022/04/22 08:35:06;;;;;;;16.60;14.10;;;;;;;13.61;61.24;100655.00;5050657;28;20336;-55
2022/04/22 08:37:31;;;;;;;16.40;14.70;;;;;;;13.57;61.30;100650.94;5050724;28;20406;-55
2022/04/22 08:39:57;;;;;;;17.38;14.40;;;;;;;13.53;61.39;100641.53;5061098;28;20067;-55
2022/04/22 08:42:26;;;;;;;19.90;14.82;;;;;;;13.57;61.27;100634.09;5069593;28;20040;-55
2022/04/22 08:44:52;;;;;;;18.10;14.90;;;;;;;13.64;61.28;100619.22;5068445;28;20116;-56
2022/04/22 08:50:02;;;;;;;15.90;13.98;;;;;;;13.77;60.70;100619.75;5068385;28;20039;-55
2022/04/22 08:52:34;;;;;;;20.58;15.95;;;;;;;13.90;61.08;100632.75;5068635;28;20115;-56
2022/04/22 08:55:01;;;;;;;19.10;15.73;;;;;;;14.13;61.25;100632.41;5066239;28;20086;-55
2022/04/22 08:57:30;;;;;;;18.42;14.73;;;;;;;14.45;59.66;100632.00;5051536;28;20044;-56
2022/04/22 09:00:09;;;;;;;16.20;14.30;;;;;;;14.85;59.28;100635.34;5052282;28;20064;-56
2022/04/22 09:02:34;;;;;;;;;;;;;;;15.20;59.30;100618.47;5052605;28;20044;-55
2022/04/22 09:05:00;;;;;;;18.48;13.85;;;;;;;15.52;56.20;100630.44;5052870;28;20716;-56
2022/04/22 09:07:26;;;;;;;16.70;14.40;;;;;;;15.59;55.79;100634.19;5052200;28;20044;-56
2022/04/22 09:09:52;;;;;;;16.98;13.75;;;;;;;15.55;55.63;100635.47;5052475;28;20045;-56
2022/04/22 09:12:20;;;;;;;15.10;13.50;;;;;;;15.73;55.12;100614.03;5052738;28;20452;-56
2022/04/22 09:14:47;;;;;;;15.23;13.52;;;;;;;15.80;54.91;100619.63;5052417;28;20033;-56
2022/04/22 09:17:33;;;;;;;15.02;13.13;;;;;;;15.79;55.09;100605.41;5052297;28;20066;-56
2022/04/22 09:19:58;;;;;;;16.60;13.30;;;;;;;15.72;53.96;100618.56;5052393;28;20045;-55
2022/04/22 09:22:25;;;;;;;16.90;12.70;;;;;;;15.75;54.36;100620.06;5052122;28;20555;-56
2022/04/22 09:24:53;;;;;;;15.00;13.35;;;;;;;15.71;55.52;100608.84;5054769;28;20059;-55
2022/04/22 09:27:19;;;;;;;16.60;13.38;;;;;;;15.69;54.47;100605.47;5056200;28;20037;-56
2022/04/22 09:29:55;;;;;;;14.45;12.95;;;;;;;15.88;54.71;100598.25;5055834;28;20044;-55
2022/04/22 09:32:21;;;;;;;13.18;11.80;;;;;;;15.99;52.80;100614.06;5055825;28;20052;-56
2022/04/22 09:34:47;;;;;;;12.05;10.52;;;;;;;16.00;52.00;100601.50;5055756;28;20503;-55
2022/04/22 09:42:47;;;;;;;14.57;10.52;;;;;;;15.67;52.03;100593.22;5056022;28;20044;-55
2022/04/22 09:45:13;;;;;;;13.05;10.45;;;;;;;15.57;52.65;100589.81;5056060;28;20471;-56
2022/04/22 09:47:40;;;;;;;12.30;10.52;;;;;;;15.47;52.67;100585.41;5055934;28;20041;-56
2022/04/22 09:50:10;;;;;;;12.85;11.25;;;;;;;15.38;53.33;100577.47;5055960;28;20086;-56
2022/04/22 09:52:36;;;;;;;13.38;11.23;;;;;;;15.35;53.14;100570.59;5070152;28;20040;-56
2022/04/22 09:55:06;;;;;;;14.52;10.80;;;;;;;15.38;53.18;100577.47;5055658;28;20036;-56
2022/04/22 09:57:55;;;;;;;12.25;10.20;;;;;;;15.53;53.59;100573.25;5055417;28;20041;-55
2022/04/22 10:00:26;;;;;;;13.57;11.20;;;;;;;15.64;52.66;100569.47;5055284;28;20071;-56
2022/04/22 10:02:52;;;;;;;12.38;11.07;;;;;;;15.62;52.53;100574.13;5054678;28;20053;-56
2022/04/22 10:05:19;;;;;;;12.27;10.57;;;;;;;15.59;51.67;100563.72;5055647;28;20068;-56
2022/04/22 10:07:44;;;;;;;11.68;10.48;;;;;;;15.52;51.28;100564.38;5055871;28;20037;-56
2022/04/22 10:10:12;;;;;;;11.93;10.73;;;;;;;15.45;51.27;100555.28;5055530;28;20368;-56
2022/04/22 10:12:39;;;;;;;11.77;9.68;;;;;;;15.38;51.42;100561.44;5051267;28;20067;-56
2022/04/22 10:15:08;;;;;;;10.63;8.98;;;;;;;15.27;50.58;100554.47;5072320;28;20040;-56
2022/04/22 10:17:37;;;;;;;12.73;9.35;;;;;;;15.23;50.54;100561.97;5074262;28;20036;-55
2022/04/22 10:20:04;;;;;;;11.82;9.00;;;;;;;15.14;51.02;100557.56;5072750;28;20055;-55
2022/04/22 10:22:31;;;;;;;13.30;9.90;;;;;;;15.04;51.27;100556.78;5074035;28;20036;-54
2022/04/22 10:24:57;;;;;;;11.30;10.10;;;;;;;15.01;51.77;100559.78;5074064;28;20127;-55
2022/04/22 10:27:23;;;;;;;13.05;10.43;;;;;;;14.96;51.74;100561.06;5057308;28;20040;-55
2022/04/22 10:29:48;;;;;;;12.02;10.52;;;;;;;15.08;52.24;100559.00;5054410;28;20040;-56
2022/04/22 10:32:16;;;;;;;10.82;9.73;;;;;;;15.13;52.04;100551.34;5054188;28;20041;-55
2022/04/22 10:34:43;;;;;;;14.05;10.07;;;;;;;15.29;52.18;100547.97;5054232;28;20048;-56
2022/04/22 10:37:26;;;;;;;12.93;10.30;;;;;;;15.41;52.11;100553.09;5053772;28;20060;-55
2022/04/22 10:39:54;;;;;;;14.00;12.00;;;;;;;15.42;51.77;100547.59;5054041;28;20045;-56
2022/04/22 10:42:29;;;;;;;13.50;12.10;;;;;;;15.47;51.81;100544.41;5054329;28;20037;-56
2022/04/22 10:47:44;;;;;;;15.25;11.10;;;;;;;15.24;51.70;100536.03;5053173;28;20067;-54
2022/04/22 10:50:42;;;;;;;15.50;11.60;;;;;;;15.20;51.64;100540.88;5054225;28;20041;-55
2022/04/22 10:53:09;;;;;;;13.93;11.23;;;;;;;15.06;51.45;100528.06;5053124;28;20040;-57
2022/04/22 10:55:41;;;;;;;11.40;10.20;;;;;;;15.15;51.21;100536.00;5053921;28;20118;-56
2022/04/22 10:58:13;;;;;;;13.38;11.05;;;;;;;15.21;50.84;100544.41;5055392;28;20461;-56
2022/04/22 11:00:43;;;;;;;11.98;10.77;;;;;;;15.09;50.71;100533.13;5053729;28;20045;-56
2022/04/22 11:03:16;;;;;;;11.48;10.35;;;;;;;15.15;51.01;100538.69;5053658;28;20033;-56
2022/04/22 11:05:46;;;;;;;11.73;10.30;;;;;;;15.25;51.44;100535.06;5054880;28;20091;-56
2022/04/22 11:08:26;;;;;;;14.50;10.43;;;;;;;15.38;50.89;100524.78;5070815;28;20047;-56
2022/04/22 11:10:51;;;;;;;13.90;11.23;;;;;;;15.45;51.06;100522.31;5073776;28;20077;-56
2022/04/22 11:13:30;;;;;;;14.27;10.87;;;;;;;15.48;50.75;100525.53;5062077;28;20430;-55
2022/04/22 11:15:57;;;;;;;13.68;11.13;;;;;;;15.45;50.51;100523.16;5043960;28;20041;-56
2022/04/22 11:18:22;;;;;;;14.63;11.10;;;;;;;15.45;50.26;100519.66;5051812;28;20029;-55
2022/04/22 11:20:57;;;;;;;12.45;10.27;;;;;;;15.45;50.47;100523.16;5052027;28;20031;-56
2022/04/22 11:23:23;;;;;;;15.93;11.25;;;;;;;15.43;50.07;100525.16;5052360;28;20041;-55
2022/04/22 11:25:51;;;;;;;15.52;10.80;;;;;;;15.42;50.42;100517.28;5052333;28;20403;-55
2022/04/22 11:28:19;;;;;;;16.67;10.60;;;;;;;15.38;50.77;100511.41;5052392;28;20033;-55
2022/04/22 11:30:44;;;;;;;17.42;11.55;;;;;;;15.40;50.30;100516.59;5052619;28;20110;-56
2022/04/22 11:33:19;;;;;;;12.50;11.20;;;;;;;15.28;50.89;100505.31;5053760;28;20470;-55
2022/04/22 11:35:47;;;;;;;15.00;11.82;;;;;;;15.24;50.68;100526.19;5053651;28;20337;-55
2022/04/22 11:38:13;;;;;;;15.82;11.50;;;;;;;15.19;50.63;100515.13;5053669;28;20652;-56
2022/04/22 11:40:39;;;;;;;16.10;11.75;;;;;;;15.09;51.24;100517.91;5053508;28;20033;-55
2022/04/22 11:43:20;;;;;;;18.48;11.40;;;;;;;15.08;51.12;100510.03;5053437;28;20037;-56
2022/04/22 11:45:50;;;;;;;17.15;11.57;;;;;;;15.06;51.02;100512.03;5053270;28;20044;-56
2022/04/22 11:48:25;;;;;;;15.95;11.35;;;;;;;15.06;50.99;100514.69;5052443;28;20064;-55
2022/04/22 11:50:52;;;;;;;14.00;11.10;;;;;;;15.06;50.89;100509.34;5053207;28;20415;-55
2022/04/22 11:53:24;;;;;;;18.73;11.30;;;;;;;15.12;51.09;100506.03;5053328;28;20037;-55
2022/04/22 11:55:49;;;;;;;14.35;12.13;;;;;;;15.11;51.33;100505.19;5053274;28;20398;-55
2022/04/22 11:58:16;;;;;;;15.98;12.55;;;;;;;15.12;51.63;100506.91;5053256;28;20041;-55
2022/04/22 12:06:16;;;;;;;14.90;12.18;;;;;;;15.33;52.37;100498.50;5053612;28;20056;-56
2022/04/22 12:08:55;;;;;;;16.92;12.18;;;;;;;15.44;51.17;100496.56;5053139;28;20033;-55